Indian Gap, Texas
Current Conditions -  °F | °C
As of 3:35 PM on Saturday 25 Oct 2014 (Local Time) from KMNZ Reporting Station
Clear Clear  
Wind Chill: 88°   Ceiling: Unl
Heat Index: 88°   Visibility: 10mi
Dew Point: 54°   Wind: 12mph
Humidity: 31%   Direction: 170°S
Pressure: 30.11"   Gusts: 21mph
Location:  31.6401°N, 98.1198°W
Report Text: KMNZ 252035Z AUTO 17010G18KT 120V200 10SM CLR 31/12 A3011 RMK AO2 T03120122
Loading
Personal Weather Stations






























Interactive Weather Map
Tropical Storm Tracking
New forecast layout! Learn more

10-Day Weather Forecast

Advertisements
Track Severe Weather on mobile